sensor_id;sensor_type;location;lat;lon;timestamp;P1;durP1;ratioP1;P2;durP2;ratioP2
20462;SDS011;10390;53.566;9.980;2024-03-02T00:00:07;9.43;;;7.25;;
20462;SDS011;10390;53.566;9.980;2024-03-02T00:02:42;9.93;;;7.60;;
20462;SDS011;10390;53.566;9.980;2024-03-02T00:05:27;12.55;;;7.97;;
20462;SDS011;10390;53.566;9.980;2024-03-02T00:07:57;11.27;;;8.00;;
20462;SDS011;10390;53.566;9.980;2024-03-02T00:10:27;13.98;;;8.45;;
20462;SDS011;10390;53.566;9.980;2024-03-02T00:13:02;11.77;;;8.05;;
20462;SDS011;10390;53.566;9.980;2024-03-02T00:18:10;9.20;;;7.80;;
20462;SDS011;10390;53.566;9.980;2024-03-02T00:20:37;10.68;;;8.18;;
20462;SDS011;10390;53.566;9.980;2024-03-02T00:23:03;11.20;;;8.02;;
20462;SDS011;10390;53.566;9.980;2024-03-02T00:28:25;9.15;;;7.90;;
20462;SDS011;10390;53.566;9.980;2024-03-02T00:31:02;10.48;;;7.53;;
20462;SDS011;10390;53.566;9.980;2024-03-02T00:33:30;10.20;;;7.13;;
20462;SDS011;10390;53.566;9.980;2024-03-02T00:35:58;9.63;;;7.55;;
20462;SDS011;10390;53.566;9.980;2024-03-02T00:38:25;9.55;;;7.20;;
20462;SDS011;10390;53.566;9.980;2024-03-02T00:40:53;8.35;;;7.40;;
20462;SDS011;10390;53.566;9.980;2024-03-02T00:46:18;10.50;;;7.68;;
20462;SDS011;10390;53.566;9.980;2024-03-02T00:49:26;10.75;;;8.20;;
20462;SDS011;10390;53.566;9.980;2024-03-02T00:51:37;9.15;;;7.90;;
20462;SDS011;10390;53.566;9.980;2024-03-02T00:54:05;8.30;;;7.35;;
20462;SDS011;10390;53.566;9.980;2024-03-02T00:56:33;9.35;;;7.72;;
20462;SDS011;10390;53.566;9.980;2024-03-02T00:58:59;8.32;;;7.10;;
20462;SDS011;10390;53.566;9.980;2024-03-02T01:01:25;8.13;;;6.88;;
20462;SDS011;10390;53.566;9.980;2024-03-02T01:03:51;9.77;;;8.20;;
20462;SDS011;10390;53.566;9.980;2024-03-02T01:06:17;8.85;;;6.97;;
20462;SDS011;10390;53.566;9.980;2024-03-02T01:08:44;8.68;;;7.13;;
20462;SDS011;10390;53.566;9.980;2024-03-02T01:11:10;9.85;;;7.28;;
20462;SDS011;10390;53.566;9.980;2024-03-02T01:13:36;10.57;;;7.35;;
20462;SDS011;10390;53.566;9.980;2024-03-02T01:16:01;10.40;;;7.70;;
20462;SDS011;10390;53.566;9.980;2024-03-02T01:18:28;12.93;;;7.93;;
20462;SDS011;10390;53.566;9.980;2024-03-02T01:20:54;8.65;;;7.07;;
20462;SDS011;10390;53.566;9.980;2024-03-02T01:23:21;8.52;;;7.15;;
20462;SDS011;10390;53.566;9.980;2024-03-02T01:25:48;8.63;;;7.28;;
20462;SDS011;10390;53.566;9.980;2024-03-02T01:28:14;9.35;;;7.20;;
20462;SDS011;10390;53.566;9.980;2024-03-02T01:30:40;10.55;;;8.23;;
20462;SDS011;10390;53.566;9.980;2024-03-02T01:33:06;9.68;;;7.43;;
20462;SDS011;10390;53.566;9.980;2024-03-02T01:35:32;8.65;;;7.32;;
20462;SDS011;10390;53.566;9.980;2024-03-02T01:37:58;9.10;;;8.05;;
20462;SDS011;10390;53.566;9.980;2024-03-02T01:40:23;9.65;;;7.80;;
20462;SDS011;10390;53.566;9.980;2024-03-02T01:42:51;8.63;;;7.07;;
20462;SDS011;10390;53.566;9.980;2024-03-02T01:45:19;9.23;;;7.75;;
20462;SDS011;10390;53.566;9.980;2024-03-02T01:47:44;8.80;;;7.40;;
20462;SDS011;10390;53.566;9.980;2024-03-02T01:50:13;8.68;;;7.65;;
20462;SDS011;10390;53.566;9.980;2024-03-02T01:52:39;10.00;;;7.13;;
20462;SDS011;10390;53.566;9.980;2024-03-02T01:55:05;9.13;;;7.53;;
20462;SDS011;10390;53.566;9.980;2024-03-02T01:57:31;8.50;;;7.55;;
20462;SDS011;10390;53.566;9.980;2024-03-02T01:59:57;8.55;;;7.63;;
20462;SDS011;10390;53.566;9.980;2024-03-02T02:02:23;8.82;;;7.63;;
20462;SDS011;10390;53.566;9.980;2024-03-02T02:04:49;8.35;;;7.43;;
20462;SDS011;10390;53.566;9.980;2024-03-02T02:07:14;8.57;;;7.43;;
20462;SDS011;10390;53.566;9.980;2024-03-02T02:09:43;9.07;;;7.60;;
20462;SDS011;10390;53.566;9.980;2024-03-02T02:12:09;9.65;;;7.28;;
20462;SDS011;10390;53.566;9.980;2024-03-02T02:14:35;9.52;;;7.75;;
20462;SDS011;10390;53.566;9.980;2024-03-02T02:17:02;9.57;;;7.82;;
20462;SDS011;10390;53.566;9.980;2024-03-02T02:19:28;9.07;;;7.80;;
20462;SDS011;10390;53.566;9.980;2024-03-02T02:21:57;8.95;;;7.90;;
20462;SDS011;10390;53.566;9.980;2024-03-02T02:24:22;9.52;;;7.70;;
20462;SDS011;10390;53.566;9.980;2024-03-02T02:26:48;10.77;;;7.93;;
20462;SDS011;10390;53.566;9.980;2024-03-02T02:29:13;10.18;;;7.07;;
20462;SDS011;10390;53.566;9.980;2024-03-02T02:31:39;8.82;;;7.88;;
20462;SDS011;10390;53.566;9.980;2024-03-02T02:34:06;9.18;;;8.27;;
20462;SDS011;10390;53.566;9.980;2024-03-02T02:36:32;9.18;;;7.72;;
20462;SDS011;10390;53.566;9.980;2024-03-02T02:39:02;7.88;;;7.07;;
20462;SDS011;10390;53.566;9.980;2024-03-02T02:41:29;9.88;;;7.88;;
20462;SDS011;10390;53.566;9.980;2024-03-02T02:43:55;8.70;;;7.80;;
20462;SDS011;10390;53.566;9.980;2024-03-02T02:46:20;10.55;;;8.32;;
20462;SDS011;10390;53.566;9.980;2024-03-02T02:48:46;8.95;;;7.65;;
20462;SDS011;10390;53.566;9.980;2024-03-02T02:51:12;9.13;;;8.13;;
20462;SDS011;10390;53.566;9.980;2024-03-02T02:53:37;9.07;;;7.85;;
20462;SDS011;10390;53.566;9.980;2024-03-02T02:56:08;9.75;;;7.95;;
20462;SDS011;10390;53.566;9.980;2024-03-02T02:58:34;10.77;;;7.97;;
20462;SDS011;10390;53.566;9.980;2024-03-02T03:01:00;8.73;;;7.53;;
20462;SDS011;10390;53.566;9.980;2024-03-02T03:03:26;10.38;;;8.13;;
20462;SDS011;10390;53.566;9.980;2024-03-02T03:05:52;9.15;;;7.55;;
20462;SDS011;10390;53.566;9.980;2024-03-02T03:08:17;10.13;;;8.27;;
20462;SDS011;10390;53.566;9.980;2024-03-02T03:10:43;9.05;;;7.65;;
20462;SDS011;10390;53.566;9.980;2024-03-02T03:13:09;9.32;;;7.72;;
20462;SDS011;10390;53.566;9.980;2024-03-02T03:15:35;7.68;;;6.88;;
20462;SDS011;10390;53.566;9.980;2024-03-02T03:18:04;8.15;;;7.28;;
20462;SDS011;10390;53.566;9.980;2024-03-02T03:20:29;8.45;;;7.43;;
20462;SDS011;10390;53.566;9.980;2024-03-02T03:22:56;8.70;;;7.38;;
20462;SDS011;10390;53.566;9.980;2024-03-02T03:25:22;8.93;;;7.60;;
20462;SDS011;10390;53.566;9.980;2024-03-02T03:27:47;8.98;;;8.07;;
20462;SDS011;10390;53.566;9.980;2024-03-02T03:30:13;8.70;;;7.80;;
20462;SDS011;10390;53.566;9.980;2024-03-02T03:32:39;9.85;;;7.85;;
20462;SDS011;10390;53.566;9.980;2024-03-02T03:35:05;9.35;;;8.10;;
20462;SDS011;10390;53.566;9.980;2024-03-02T03:37:31;8.93;;;7.90;;
20462;SDS011;10390;53.566;9.980;2024-03-02T03:40:00;8.68;;;7.75;;
20462;SDS011;10390;53.566;9.980;2024-03-02T03:42:35;9.50;;;8.07;;
20462;SDS011;10390;53.566;9.980;2024-03-02T03:45:01;9.18;;;8.05;;
20462;SDS011;10390;53.566;9.980;2024-03-02T03:47:27;8.68;;;7.72;;
20462;SDS011;10390;53.566;9.980;2024-03-02T03:49:53;10.70;;;8.30;;
20462;SDS011;10390;53.566;9.980;2024-03-02T03:52:18;9.18;;;8.18;;
20462;SDS011;10390;53.566;9.980;2024-03-02T03:54:44;9.93;;;7.90;;
20462;SDS011;10390;53.566;9.980;2024-03-02T03:57:09;8.70;;;7.80;;
20462;SDS011;10390;53.566;9.980;2024-03-02T03:59:35;8.65;;;7.13;;
20462;SDS011;10390;53.566;9.980;2024-03-02T04:02:02;8.10;;;7.25;;
20462;SDS011;10390;53.566;9.980;2024-03-02T04:04:28;8.98;;;8.07;;
20462;SDS011;10390;53.566;9.980;2024-03-02T04:06:54;8.75;;;7.40;;
20462;SDS011;10390;53.566;9.980;2024-03-02T04:09:19;9.15;;;7.60;;
20462;SDS011;10390;53.566;9.980;2024-03-02T04:11:45;10.00;;;8.18;;
20462;SDS011;10390;53.566;9.980;2024-03-02T04:14:11;8.57;;;7.68;;
20462;SDS011;10390;53.566;9.980;2024-03-02T04:16:37;8.10;;;7.28;;
20462;SDS011;10390;53.566;9.980;2024-03-02T04:19:03;9.50;;;8.32;;
20462;SDS011;10390;53.566;9.980;2024-03-02T04:21:29;9.48;;;8.27;;
20462;SDS011;10390;53.566;9.980;2024-03-02T04:23:54;8.60;;;7.55;;
20462;SDS011;10390;53.566;9.980;2024-03-02T04:26:24;9.52;;;7.88;;
20462;SDS011;10390;53.566;9.980;2024-03-02T04:28:50;8.52;;;7.63;;
20462;SDS011;10390;53.566;9.980;2024-03-02T04:31:19;8.93;;;8.02;;
20462;SDS011;10390;53.566;9.980;2024-03-02T04:33:45;9.50;;;8.48;;
20462;SDS011;10390;53.566;9.980;2024-03-02T04:36:10;9.90;;;8.13;;
20462;SDS011;10390;53.566;9.980;2024-03-02T04:38:36;8.80;;;7.90;;
20462;SDS011;10390;53.566;9.980;2024-03-02T04:41:04;8.65;;;7.75;;
20462;SDS011;10390;53.566;9.980;2024-03-02T04:43:31;8.05;;;7.25;;
20462;SDS011;10390;53.566;9.980;2024-03-02T04:45:57;8.25;;;7.18;;
20462;SDS011;10390;53.566;9.980;2024-03-02T04:48:23;9.38;;;7.47;;
20462;SDS011;10390;53.566;9.980;2024-03-02T04:50:49;9.50;;;7.65;;
20462;SDS011;10390;53.566;9.980;2024-03-02T04:53:15;8.82;;;7.93;;
20462;SDS011;10390;53.566;9.980;2024-03-02T04:55:40;9.35;;;7.28;;
20462;SDS011;10390;53.566;9.980;2024-03-02T04:58:06;8.18;;;7.38;;
20462;SDS011;10390;53.566;9.980;2024-03-02T05:00:32;8.95;;;7.63;;
20462;SDS011;10390;53.566;9.980;2024-03-02T05:02:58;9.57;;;8.00;;
20462;SDS011;10390;53.566;9.980;2024-03-02T05:05:23;8.95;;;8.05;;
20462;SDS011;10390;53.566;9.980;2024-03-02T05:07:49;10.15;;;8.85;;
20462;SDS011;10390;53.566;9.980;2024-03-02T05:10:14;9.00;;;7.65;;
20462;SDS011;10390;53.566;9.980;2024-03-02T05:12:40;8.88;;;7.93;;
20462;SDS011;10390;53.566;9.980;2024-03-02T05:15:09;9.38;;;8.38;;
20462;SDS011;10390;53.566;9.980;2024-03-02T05:17:39;10.07;;;7.90;;
20462;SDS011;10390;53.566;9.980;2024-03-02T05:20:08;10.65;;;7.80;;
20462;SDS011;10390;53.566;9.980;2024-03-02T05:22:34;8.73;;;7.82;;
20462;SDS011;10390;53.566;9.980;2024-03-02T05:25:00;9.07;;;7.97;;
20462;SDS011;10390;53.566;9.980;2024-03-02T05:27:27;9.00;;;8.10;;
20462;SDS011;10390;53.566;9.980;2024-03-02T05:29:52;8.02;;;7.22;;
20462;SDS011;10390;53.566;9.980;2024-03-02T05:32:18;9.75;;;7.75;;
20462;SDS011;10390;53.566;9.980;2024-03-02T05:34:43;8.60;;;7.70;;
20462;SDS011;10390;53.566;9.980;2024-03-02T05:37:09;9.60;;;7.50;;
20462;SDS011;10390;53.566;9.980;2024-03-02T05:39:35;8.40;;;7.53;;
20462;SDS011;10390;53.566;9.980;2024-03-02T05:42:00;8.25;;;7.45;;
20462;SDS011;10390;53.566;9.980;2024-03-02T05:44:26;8.90;;;7.20;;
20462;SDS011;10390;53.566;9.980;2024-03-02T05:46:51;8.68;;;7.80;;
20462;SDS011;10390;53.566;9.980;2024-03-02T05:49:17;9.57;;;7.88;;
20462;SDS011;10390;53.566;9.980;2024-03-02T05:51:43;10.60;;;8.35;;
20462;SDS011;10390;53.566;9.980;2024-03-02T05:54:09;9.98;;;8.05;;
20462;SDS011;10390;53.566;9.980;2024-03-02T05:56:34;9.40;;;7.30;;
20462;SDS011;10390;53.566;9.980;2024-03-02T05:59:00;9.23;;;8.05;;
20462;SDS011;10390;53.566;9.980;2024-03-02T06:01:47;8.88;;;7.82;;
20462;SDS011;10390;53.566;9.980;2024-03-02T06:04:15;8.68;;;7.70;;
20462;SDS011;10390;53.566;9.980;2024-03-02T06:06:41;9.10;;;7.70;;
20462;SDS011;10390;53.566;9.980;2024-03-02T06:09:07;8.60;;;7.70;;
20462;SDS011;10390;53.566;9.980;2024-03-02T06:11:33;9.90;;;8.15;;
20462;SDS011;10390;53.566;9.980;2024-03-02T06:14:00;8.80;;;7.90;;
20462;SDS011;10390;53.566;9.980;2024-03-02T06:16:26;8.82;;;7.70;;
20462;SDS011;10390;53.566;9.980;2024-03-02T06:18:51;8.95;;;7.97;;
20462;SDS011;10390;53.566;9.980;2024-03-02T06:21:19;9.70;;;7.80;;
20462;SDS011;10390;53.566;9.980;2024-03-02T06:23:47;9.25;;;8.18;;
20462;SDS011;10390;53.566;9.980;2024-03-02T06:26:12;9.25;;;8.02;;
20462;SDS011;10390;53.566;9.980;2024-03-02T06:28:38;8.43;;;7.32;;
20462;SDS011;10390;53.566;9.980;2024-03-02T06:31:04;9.00;;;7.53;;
20462;SDS011;10390;53.566;9.980;2024-03-02T06:33:29;9.13;;;7.78;;
20462;SDS011;10390;53.566;9.980;2024-03-02T06:35:55;8.88;;;7.90;;
20462;SDS011;10390;53.566;9.980;2024-03-02T06:38:21;9.25;;;7.53;;
20462;SDS011;10390;53.566;9.980;2024-03-02T06:40:46;8.48;;;7.57;;
20462;SDS011;10390;53.566;9.980;2024-03-02T06:43:12;9.43;;;7.95;;
20462;SDS011;10390;53.566;9.980;2024-03-02T06:45:37;8.32;;;7.47;;
20462;SDS011;10390;53.566;9.980;2024-03-02T06:48:03;8.70;;;7.53;;
20462;SDS011;10390;53.566;9.980;2024-03-02T06:50:29;8.50;;;7.57;;
20462;SDS011;10390;53.566;9.980;2024-03-02T06:52:55;7.78;;;6.97;;
20462;SDS011;10390;53.566;9.980;2024-03-02T06:55:23;9.75;;;7.28;;
20462;SDS011;10390;53.566;9.980;2024-03-02T06:57:49;9.07;;;7.20;;
20462;SDS011;10390;53.566;9.980;2024-03-02T07:00:16;8.82;;;7.40;;
20462;SDS011;10390;53.566;9.980;2024-03-02T07:02:43;8.60;;;7.63;;
20462;SDS011;10390;53.566;9.980;2024-03-02T07:05:09;8.57;;;7.47;;
20462;SDS011;10390;53.566;9.980;2024-03-02T07:07:36;7.78;;;6.72;;
20462;SDS011;10390;53.566;9.980;2024-03-02T07:10:03;8.20;;;6.90;;
20462;SDS011;10390;53.566;9.980;2024-03-02T07:12:29;11.25;;;7.78;;
20462;SDS011;10390;53.566;9.980;2024-03-02T07:14:56;9.27;;;7.70;;
20462;SDS011;10390;53.566;9.980;2024-03-02T07:17:36;7.85;;;7.05;;
20462;SDS011;10390;53.566;9.980;2024-03-02T07:20:02;8.55;;;7.15;;
20462;SDS011;10390;53.566;9.980;2024-03-02T07:22:29;9.13;;;7.35;;
20462;SDS011;10390;53.566;9.980;2024-03-02T07:24:55;10.43;;;7.32;;
20462;SDS011;10390;53.566;9.980;2024-03-02T07:27:21;9.13;;;7.30;;
20462;SDS011;10390;53.566;9.980;2024-03-02T07:29:47;10.52;;;7.18;;
20462;SDS011;10390;53.566;9.980;2024-03-02T07:32:13;8.20;;;6.72;;
20462;SDS011;10390;53.566;9.980;2024-03-02T07:34:38;10.07;;;6.82;;
20462;SDS011;10390;53.566;9.980;2024-03-02T07:37:04;9.85;;;7.22;;
20462;SDS011;10390;53.566;9.980;2024-03-02T07:39:31;11.70;;;7.28;;
20462;SDS011;10390;53.566;9.980;2024-03-02T07:41:56;10.65;;;7.28;;
20462;SDS011;10390;53.566;9.980;2024-03-02T07:44:22;10.93;;;6.95;;
20462;SDS011;10390;53.566;9.980;2024-03-02T07:46:48;13.20;;;7.20;;
20462;SDS011;10390;53.566;9.980;2024-03-02T07:49:18;12.95;;;6.57;;
20462;SDS011;10390;53.566;9.980;2024-03-02T07:51:44;11.57;;;6.93;;
20462;SDS011;10390;53.566;9.980;2024-03-02T07:54:10;11.98;;;6.82;;
20462;SDS011;10390;53.566;9.980;2024-03-02T07:56:36;11.38;;;7.25;;
20462;SDS011;10390;53.566;9.980;2024-03-02T07:59:02;14.05;;;8.13;;
20462;SDS011;10390;53.566;9.980;2024-03-02T08:01:28;14.52;;;7.30;;
20462;SDS011;10390;53.566;9.980;2024-03-02T08:03:55;12.15;;;7.35;;
20462;SDS011;10390;53.566;9.980;2024-03-02T08:06:25;14.57;;;7.43;;
20462;SDS011;10390;53.566;9.980;2024-03-02T08:08:59;15.75;;;7.78;;
20462;SDS011;10390;53.566;9.980;2024-03-02T08:11:25;12.73;;;7.40;;
20462;SDS011;10390;53.566;9.980;2024-03-02T08:13:56;12.48;;;6.78;;
20462;SDS011;10390;53.566;9.980;2024-03-02T08:16:24;14.68;;;7.90;;
20462;SDS011;10390;53.566;9.980;2024-03-02T08:18:50;12.98;;;7.30;;
20462;SDS011;10390;53.566;9.980;2024-03-02T08:21:16;15.38;;;6.93;;
20462;SDS011;10390;53.566;9.980;2024-03-02T08:23:42;12.55;;;6.85;;
20462;SDS011;10390;53.566;9.980;2024-03-02T08:26:08;8.90;;;7.10;;
20462;SDS011;10390;53.566;9.980;2024-03-02T08:28:34;9.30;;;6.90;;
20462;SDS011;10390;53.566;9.980;2024-03-02T08:31:02;12.15;;;7.50;;
20462;SDS011;10390;53.566;9.980;2024-03-02T08:33:28;11.63;;;6.70;;
20462;SDS011;10390;53.566;9.980;2024-03-02T08:35:54;13.00;;;7.85;;
20462;SDS011;10390;53.566;9.980;2024-03-02T08:38:20;16.65;;;6.38;;
20462;SDS011;10390;53.566;9.980;2024-03-02T08:40:46;15.93;;;7.07;;
20462;SDS011;10390;53.566;9.980;2024-03-02T08:43:12;10.13;;;6.57;;
20462;SDS011;10390;53.566;9.980;2024-03-02T08:45:38;10.43;;;6.70;;
20462;SDS011;10390;53.566;9.980;2024-03-02T08:48:05;13.90;;;7.50;;
20462;SDS011;10390;53.566;9.980;2024-03-02T08:50:33;11.70;;;6.60;;
20462;SDS011;10390;53.566;9.980;2024-03-02T08:52:59;10.57;;;6.55;;
20462;SDS011;10390;53.566;9.980;2024-03-02T08:55:25;14.68;;;7.18;;
20462;SDS011;10390;53.566;9.980;2024-03-02T08:57:50;12.32;;;6.97;;
20462;SDS011;10390;53.566;9.980;2024-03-02T09:00:16;11.05;;;6.68;;
20462;SDS011;10390;53.566;9.980;2024-03-02T09:02:45;14.85;;;7.20;;
20462;SDS011;10390;53.566;9.980;2024-03-02T09:05:11;13.90;;;7.15;;
20462;SDS011;10390;53.566;9.980;2024-03-02T09:07:37;13.63;;;7.28;;
20462;SDS011;10390;53.566;9.980;2024-03-02T09:10:04;13.20;;;7.07;;
20462;SDS011;10390;53.566;9.980;2024-03-02T09:12:31;13.73;;;6.43;;
20462;SDS011;10390;53.566;9.980;2024-03-02T09:14:57;10.80;;;7.10;;
20462;SDS011;10390;53.566;9.980;2024-03-02T09:17:23;11.82;;;6.60;;
20462;SDS011;10390;53.566;9.980;2024-03-02T09:19:49;11.73;;;6.75;;
20462;SDS011;10390;53.566;9.980;2024-03-02T09:22:17;11.25;;;7.18;;
20462;SDS011;10390;53.566;9.980;2024-03-02T09:24:43;12.05;;;7.28;;
20462;SDS011;10390;53.566;9.980;2024-03-02T09:27:09;17.65;;;7.55;;
20462;SDS011;10390;53.566;9.980;2024-03-02T09:29:34;12.20;;;6.95;;
20462;SDS011;10390;53.566;9.980;2024-03-02T09:32:00;13.30;;;7.60;;
20462;SDS011;10390;53.566;9.980;2024-03-02T09:34:26;13.70;;;7.28;;
20462;SDS011;10390;53.566;9.980;2024-03-02T09:36:51;13.55;;;5.97;;
20462;SDS011;10390;53.566;9.980;2024-03-02T09:39:17;15.13;;;7.63;;
20462;SDS011;10390;53.566;9.980;2024-03-02T09:41:43;14.32;;;7.72;;
20462;SDS011;10390;53.566;9.980;2024-03-02T09:44:09;13.70;;;7.20;;
20462;SDS011;10390;53.566;9.980;2024-03-02T09:46:35;11.65;;;7.05;;
20462;SDS011;10390;53.566;9.980;2024-03-02T09:49:02;10.25;;;6.50;;
20462;SDS011;10390;53.566;9.980;2024-03-02T09:51:28;13.98;;;7.25;;
20462;SDS011;10390;53.566;9.980;2024-03-02T09:53:54;10.07;;;7.28;;
20462;SDS011;10390;53.566;9.980;2024-03-02T09:56:21;11.02;;;7.60;;
20462;SDS011;10390;53.566;9.980;2024-03-02T09:58:47;17.13;;;7.65;;
20462;SDS011;10390;53.566;9.980;2024-03-02T10:01:13;13.70;;;7.22;;
20462;SDS011;10390;53.566;9.980;2024-03-02T10:03:39;10.90;;;7.35;;
20462;SDS011;10390;53.566;9.980;2024-03-02T10:06:21;10.40;;;7.20;;
20462;SDS011;10390;53.566;9.980;2024-03-02T10:08:47;18.85;;;8.30;;
20462;SDS011;10390;53.566;9.980;2024-03-02T10:11:26;9.95;;;7.32;;
20462;SDS011;10390;53.566;9.980;2024-03-02T10:19:14;12.73;;;7.32;;
20462;SDS011;10390;53.566;9.980;2024-03-02T10:21:46;11.90;;;8.23;;
20462;SDS011;10390;53.566;9.980;2024-03-02T10:24:13;15.70;;;7.47;;
20462;SDS011;10390;53.566;9.980;2024-03-02T10:26:39;15.15;;;7.45;;
20462;SDS011;10390;53.566;9.980;2024-03-02T10:29:05;11.00;;;7.25;;
20462;SDS011;10390;53.566;9.980;2024-03-02T10:31:30;13.70;;;7.82;;
20462;SDS011;10390;53.566;9.980;2024-03-02T10:34:00;13.25;;;6.93;;
20462;SDS011;10390;53.566;9.980;2024-03-02T10:36:26;12.40;;;7.20;;
20462;SDS011;10390;53.566;9.980;2024-03-02T10:38:53;11.10;;;7.35;;
20462;SDS011;10390;53.566;9.980;2024-03-02T10:41:24;11.30;;;8.45;;
20462;SDS011;10390;53.566;9.980;2024-03-02T10:43:52;11.10;;;8.13;;
20462;SDS011;10390;53.566;9.980;2024-03-02T10:46:24;12.23;;;7.25;;
20462;SDS011;10390;53.566;9.980;2024-03-02T10:48:54;14.00;;;8.05;;
20462;SDS011;10390;53.566;9.980;2024-03-02T10:51:20;10.52;;;8.27;;
20462;SDS011;10390;53.566;9.980;2024-03-02T10:53:46;14.15;;;7.68;;
20462;SDS011;10390;53.566;9.980;2024-03-02T10:56:12;10.80;;;7.63;;
20462;SDS011;10390;53.566;9.980;2024-03-02T10:58:44;16.08;;;7.82;;
20462;SDS011;10390;53.566;9.980;2024-03-02T11:01:11;10.48;;;7.35;;
20462;SDS011;10390;53.566;9.980;2024-03-02T11:03:38;13.35;;;7.13;;
20462;SDS011;10390;53.566;9.980;2024-03-02T11:06:07;16.33;;;7.97;;
20462;SDS011;10390;53.566;9.980;2024-03-02T11:08:34;9.80;;;7.00;;
20462;SDS011;10390;53.566;9.980;2024-03-02T11:11:06;15.30;;;8.18;;
20462;SDS011;10390;53.566;9.980;2024-03-02T11:13:36;12.45;;;8.35;;
20462;SDS011;10390;53.566;9.980;2024-03-02T11:16:16;11.60;;;7.78;;
20462;SDS011;10390;53.566;9.980;2024-03-02T11:19:11;14.35;;;7.82;;
20462;SDS011;10390;53.566;9.980;2024-03-02T11:21:39;18.25;;;8.75;;
20462;SDS011;10390;53.566;9.980;2024-03-02T11:26:49;12.40;;;8.18;;
20462;SDS011;10390;53.566;9.980;2024-03-02T11:32:02;16.85;;;9.45;;
20462;SDS011;10390;53.566;9.980;2024-03-02T11:34:29;17.80;;;8.88;;
20462;SDS011;10390;53.566;9.980;2024-03-02T11:36:55;17.38;;;8.02;;
20462;SDS011;10390;53.566;9.980;2024-03-02T11:39:21;17.67;;;8.98;;
20462;SDS011;10390;53.566;9.980;2024-03-02T11:41:48;17.85;;;8.75;;
20462;SDS011;10390;53.566;9.980;2024-03-02T11:44:14;23.23;;;9.20;;
20462;SDS011;10390;53.566;9.980;2024-03-02T11:46:41;16.83;;;8.10;;
20462;SDS011;10390;53.566;9.980;2024-03-02T11:49:06;18.88;;;8.27;;
20462;SDS011;10390;53.566;9.980;2024-03-02T11:51:33;18.15;;;8.98;;
20462;SDS011;10390;53.566;9.980;2024-03-02T11:54:00;15.40;;;8.40;;
20462;SDS011;10390;53.566;9.980;2024-03-02T11:56:27;18.30;;;8.98;;
20462;SDS011;10390;53.566;9.980;2024-03-02T11:58:55;17.80;;;8.95;;
20462;SDS011;10390;53.566;9.980;2024-03-02T12:01:22;19.58;;;8.43;;
20462;SDS011;10390;53.566;9.980;2024-03-02T12:03:48;22.35;;;8.68;;
20462;SDS011;10390;53.566;9.980;2024-03-02T12:06:14;20.75;;;8.73;;
20462;SDS011;10390;53.566;9.980;2024-03-02T12:08:40;18.48;;;8.65;;
20462;SDS011;10390;53.566;9.980;2024-03-02T12:11:06;14.98;;;8.88;;
20462;SDS011;10390;53.566;9.980;2024-03-02T12:13:31;24.23;;;9.00;;
20462;SDS011;10390;53.566;9.980;2024-03-02T12:15:58;23.20;;;9.13;;
20462;SDS011;10390;53.566;9.980;2024-03-02T12:18:24;19.08;;;9.20;;
20462;SDS011;10390;53.566;9.980;2024-03-02T12:20:50;20.92;;;9.38;;
20462;SDS011;10390;53.566;9.980;2024-03-02T12:23:23;19.85;;;9.15;;
20462;SDS011;10390;53.566;9.980;2024-03-02T12:25:49;21.30;;;9.35;;
20462;SDS011;10390;53.566;9.980;2024-03-02T12:28:15;18.85;;;8.95;;
20462;SDS011;10390;53.566;9.980;2024-03-02T12:30:41;21.17;;;8.90;;
20462;SDS011;10390;53.566;9.980;2024-03-02T12:33:06;20.08;;;8.82;;
20462;SDS011;10390;53.566;9.980;2024-03-02T12:35:32;21.77;;;9.13;;
20462;SDS011;10390;53.566;9.980;2024-03-02T12:37:58;20.75;;;8.98;;
20462;SDS011;10390;53.566;9.980;2024-03-02T12:40:23;15.68;;;8.85;;
20462;SDS011;10390;53.566;9.980;2024-03-02T12:42:49;20.50;;;8.63;;
20462;SDS011;10390;53.566;9.980;2024-03-02T12:45:15;17.02;;;8.32;;
20462;SDS011;10390;53.566;9.980;2024-03-02T12:47:41;12.98;;;8.45;;
20462;SDS011;10390;53.566;9.980;2024-03-02T12:50:08;14.23;;;8.95;;
20462;SDS011;10390;53.566;9.980;2024-03-02T12:52:35;16.80;;;8.40;;
20462;SDS011;10390;53.566;9.980;2024-03-02T12:55:01;16.02;;;8.73;;
20462;SDS011;10390;53.566;9.980;2024-03-02T12:57:29;15.48;;;8.73;;
20462;SDS011;10390;53.566;9.980;2024-03-02T12:59:59;18.45;;;8.55;;
20462;SDS011;10390;53.566;9.980;2024-03-02T13:02:39;13.15;;;8.20;;
20462;SDS011;10390;53.566;9.980;2024-03-02T13:05:06;20.42;;;9.52;;
20462;SDS011;10390;53.566;9.980;2024-03-02T13:07:36;15.77;;;8.98;;
20462;SDS011;10390;53.566;9.980;2024-03-02T13:10:02;23.00;;;9.35;;
20462;SDS011;10390;53.566;9.980;2024-03-02T13:12:29;12.93;;;9.40;;
20462;SDS011;10390;53.566;9.980;2024-03-02T13:14:57;23.92;;;9.80;;
20462;SDS011;10390;53.566;9.980;2024-03-02T13:17:23;24.70;;;10.35;;
20462;SDS011;10390;53.566;9.980;2024-03-02T13:19:56;19.02;;;9.02;;
20462;SDS011;10390;53.566;9.980;2024-03-02T13:22:22;15.18;;;9.30;;
20462;SDS011;10390;53.566;9.980;2024-03-02T13:24:49;20.15;;;8.95;;
20462;SDS011;10390;53.566;9.980;2024-03-02T13:27:15;20.00;;;9.35;;
20462;SDS011;10390;53.566;9.980;2024-03-02T13:29:44;16.33;;;8.32;;
20462;SDS011;10390;53.566;9.980;2024-03-02T13:32:11;21.67;;;8.90;;
20462;SDS011;10390;53.566;9.980;2024-03-02T13:34:36;13.38;;;8.18;;
20462;SDS011;10390;53.566;9.980;2024-03-02T13:37:02;15.27;;;8.73;;
20462;SDS011;10390;53.566;9.980;2024-03-02T13:39:30;16.38;;;7.78;;
20462;SDS011;10390;53.566;9.980;2024-03-02T13:41:57;19.52;;;9.25;;
20462;SDS011;10390;53.566;9.980;2024-03-02T13:44:29;15.23;;;8.85;;
20462;SDS011;10390;53.566;9.980;2024-03-02T13:46:55;13.90;;;8.50;;
20462;SDS011;10390;53.566;9.980;2024-03-02T13:49:23;16.55;;;9.25;;
20462;SDS011;10390;53.566;9.980;2024-03-02T13:51:48;13.05;;;8.50;;
20462;SDS011;10390;53.566;9.980;2024-03-02T13:54:14;15.85;;;8.13;;
20462;SDS011;10390;53.566;9.980;2024-03-02T13:56:40;16.45;;;7.78;;
20462;SDS011;10390;53.566;9.980;2024-03-02T13:59:06;15.32;;;8.50;;
20462;SDS011;10390;53.566;9.980;2024-03-02T14:01:32;17.80;;;8.70;;
20462;SDS011;10390;53.566;9.980;2024-03-02T14:03:58;17.95;;;7.70;;
20462;SDS011;10390;53.566;9.980;2024-03-02T14:06:24;13.55;;;8.00;;
20462;SDS011;10390;53.566;9.980;2024-03-02T14:08:52;15.23;;;8.10;;
20462;SDS011;10390;53.566;9.980;2024-03-02T14:11:18;14.48;;;8.32;;
20462;SDS011;10390;53.566;9.980;2024-03-02T14:13:44;16.60;;;8.25;;
20462;SDS011;10390;53.566;9.980;2024-03-02T14:16:14;14.10;;;7.97;;
20462;SDS011;10390;53.566;9.980;2024-03-02T14:18:40;12.82;;;7.55;;
20462;SDS011;10390;53.566;9.980;2024-03-02T14:21:06;13.80;;;7.78;;
20462;SDS011;10390;53.566;9.980;2024-03-02T14:23:32;14.02;;;7.53;;
20462;SDS011;10390;53.566;9.980;2024-03-02T14:25:58;11.70;;;7.25;;
20462;SDS011;10390;53.566;9.980;2024-03-02T14:28:24;12.63;;;7.50;;
20462;SDS011;10390;53.566;9.980;2024-03-02T14:30:50;13.45;;;7.40;;
20462;SDS011;10390;53.566;9.980;2024-03-02T14:33:15;13.60;;;8.10;;
20462;SDS011;10390;53.566;9.980;2024-03-02T14:35:41;15.15;;;6.95;;
20462;SDS011;10390;53.566;9.980;2024-03-02T14:38:07;12.18;;;7.35;;
20462;SDS011;10390;53.566;9.980;2024-03-02T14:40:33;10.60;;;7.55;;
20462;SDS011;10390;53.566;9.980;2024-03-02T14:42:58;13.45;;;7.57;;
20462;SDS011;10390;53.566;9.980;2024-03-02T14:45:24;11.48;;;7.15;;
20462;SDS011;10390;53.566;9.980;2024-03-02T14:47:49;10.13;;;7.32;;
20462;SDS011;10390;53.566;9.980;2024-03-02T14:50:16;11.00;;;7.43;;
20462;SDS011;10390;53.566;9.980;2024-03-02T14:52:43;12.85;;;7.43;;
20462;SDS011;10390;53.566;9.980;2024-03-02T14:55:10;13.27;;;7.30;;
20462;SDS011;10390;53.566;9.980;2024-03-02T14:57:36;11.00;;;7.20;;